New Diana, Texas
Current Conditions -  °F | °C
As of 3:53 PM on Sunday 23 Nov 2014 (Local Time) from KGGG Reporting Station
Clear Clear  
Wind Chill: 73°   Ceiling: Unl
Heat Index: 73°   Visibility: 10mi
Dew Point: 54°   Wind: 15mph
Humidity: 51%   Direction: 200°SSW
Pressure: 29.41"   Gusts: NA
Location:  32.6998°N, 94.6696°W
Report Text: KGGG 232153Z 20013KT 10SM CLR 23/12 A2941 RMK AO2 SLP956 T02280122
Loading
Personal Weather Stations






























Interactive Weather Map New forecast layout! Learn more

10-Day Weather Forecast

Advertisements
Track Severe Weather on mobile